createdAt,value
2023-05-19T00:00:33.244Z,11.19
2023-05-19T00:03:03.268Z,11.08
2023-05-19T00:05:34.494Z,11.16
2023-05-19T00:08:03.075Z,11.05
2023-05-19T00:10:33.260Z,11.01
2023-05-19T00:13:02.363Z,11.08
2023-05-19T00:15:31.239Z,11.16
2023-05-19T00:17:59.614Z,11.12
2023-05-19T00:20:27.874Z,11.11
2023-05-19T00:22:57.505Z,11.13
2023-05-19T00:25:25.936Z,11.24
2023-05-19T00:27:54.211Z,11.30
2023-05-19T00:30:22.909Z,11.31
2023-05-19T00:32:51.361Z,11.32
2023-05-19T00:35:19.794Z,11.36
2023-05-19T00:37:48.824Z,11.36
2023-05-19T00:40:18.612Z,11.35
2023-05-19T00:42:47.017Z,11.31
2023-05-19T00:45:15.322Z,11.29
2023-05-19T00:47:43.907Z,11.30
2023-05-19T00:50:12.197Z,11.36
2023-05-19T00:52:40.435Z,11.34
2023-05-19T00:55:09.836Z,11.33
2023-05-19T00:57:40.856Z,11.26
2023-05-19T01:00:11.272Z,11.23
2023-05-19T01:02:39.952Z,11.12
2023-05-19T01:05:09.953Z,11.16
2023-05-19T01:07:38.567Z,11.24
2023-05-19T01:10:07.848Z,11.21
2023-05-19T01:12:36.277Z,11.03
2023-05-19T01:15:07.107Z,11.01
2023-05-19T01:17:40.369Z,11.11
2023-05-19T01:20:17.335Z,11.03
2023-05-19T01:23:19.774Z,11.07
2023-05-19T01:26:07.068Z,11.14
2023-05-19T01:29:10.806Z,11.10
2023-05-19T01:31:42.262Z,11.18
2023-05-19T01:34:12.610Z,11.12
2023-05-19T01:36:44.802Z,11.07
2023-05-19T01:39:14.983Z,11.03
2023-05-19T01:41:45.737Z,11.09
2023-05-19T01:44:14.631Z,11.08
2023-05-19T01:46:44.504Z,11.08
2023-05-19T01:49:14.198Z,11.12
2023-05-19T01:51:42.707Z,11.13
2023-05-19T01:54:11.062Z,11.09
2023-05-19T01:56:47.141Z,11.19
2023-05-19T01:59:25.324Z,11.25
2023-05-19T02:01:55.973Z,11.28
2023-05-19T02:04:31.419Z,11.29
2023-05-19T02:07:03.351Z,11.32
2023-05-19T02:09:39.632Z,11.28
2023-05-19T02:12:13.176Z,11.23
2023-05-19T02:14:46.848Z,11.22
2023-05-19T02:17:17.998Z,11.22
2023-05-19T02:19:46.375Z,11.28
2023-05-19T02:22:16.164Z,11.32
2023-05-19T02:24:46.650Z,11.33
2023-05-19T02:27:14.956Z,11.34
2023-05-19T02:29:44.507Z,11.38
2023-05-19T02:32:13.157Z,11.38
2023-05-19T02:34:45.582Z,11.37
2023-05-19T02:37:14.632Z,11.36
2023-05-19T02:39:42.969Z,11.36
2023-05-19T02:42:12.124Z,11.41
2023-05-19T02:44:40.483Z,11.30
2023-05-19T02:47:08.926Z,11.30
2023-05-19T02:49:37.236Z,11.34
2023-05-19T02:52:07.325Z,11.31
2023-05-19T02:54:36.218Z,11.31
2023-05-19T02:57:04.689Z,11.29
2023-05-19T02:59:32.932Z,11.16
2023-05-19T03:02:02.539Z,11.05
2023-05-19T03:04:31.299Z,11.12
2023-05-19T03:06:59.612Z,11.08
2023-05-19T03:09:29.258Z,11.04
2023-05-19T03:11:57.507Z,11.05
2023-05-19T03:14:25.810Z,11.12
2023-05-19T03:16:54.234Z,11.08
2023-05-19T03:19:22.835Z,10.97
2023-05-19T03:21:51.570Z,10.95
2023-05-19T03:24:19.868Z,10.88
2023-05-19T03:26:49.492Z,10.93
2023-05-19T03:29:17.738Z,10.98
2023-05-19T03:31:46.976Z,10.99
2023-05-19T03:34:17.015Z,10.98
2023-05-19T03:36:45.582Z,11.03
2023-05-19T03:39:17.243Z,11.02
2023-05-19T03:41:47.280Z,10.95
2023-05-19T03:44:17.009Z,10.97
2023-05-19T03:46:46.082Z,10.97
2023-05-19T03:49:37.644Z,11.00
2023-05-19T03:52:28.827Z,11.04
2023-05-19T03:55:05.200Z,11.01
2023-05-19T03:57:33.672Z,11.00
2023-05-19T04:00:06.130Z,10.99
2023-05-19T04:02:40.814Z,10.93
2023-05-19T04:05:09.537Z,10.85
2023-05-19T04:07:38.899Z,10.85
2023-05-19T04:10:08.148Z,10.93
2023-05-19T04:12:36.354Z,10.98
2023-05-19T04:15:06.840Z,11.04
2023-05-19T04:17:35.183Z,10.99
2023-05-19T04:20:04.799Z,10.92
2023-05-19T04:22:33.121Z,10.96
2023-05-19T04:25:01.727Z,10.99
2023-05-19T04:27:31.979Z,11.02
2023-05-19T04:30:00.651Z,11.04
2023-05-19T04:32:31.152Z,10.99
2023-05-19T04:35:00.138Z,11.02
2023-05-19T04:37:29.952Z,10.98
2023-05-19T04:39:58.372Z,10.95
2023-05-19T04:42:30.767Z,10.96
2023-05-19T04:45:00.685Z,11.02
2023-05-19T04:47:36.911Z,11.05
2023-05-19T04:50:07.437Z,11.08
2023-05-19T04:52:36.254Z,10.86
2023-05-19T04:55:06.842Z,10.97
2023-05-19T04:57:35.290Z,10.87
2023-05-19T05:00:07.960Z,10.90
2023-05-19T05:02:49.221Z,10.90
2023-05-19T05:05:19.864Z,10.90
2023-05-19T05:07:48.202Z,10.87
2023-05-19T05:10:17.147Z,10.87
2023-05-19T05:12:46.118Z,10.95
2023-05-19T05:15:14.941Z,11.05
2023-05-19T05:17:43.803Z,11.01
2023-05-19T05:20:15.056Z,11.03
2023-05-19T05:22:44.309Z,10.94
2023-05-19T05:25:15.233Z,10.98
2023-05-19T05:27:45.581Z,11.03
2023-05-19T05:30:15.262Z,10.98
2023-05-19T05:32:44.083Z,11.05
2023-05-19T05:35:26.365Z,10.93
2023-05-19T05:37:54.833Z,10.88
2023-05-19T05:40:23.016Z,11.05
2023-05-19T05:42:51.476Z,11.01
2023-05-19T05:45:22.135Z,11.00
2023-05-19T05:47:51.354Z,10.97
2023-05-19T05:50:20.384Z,11.00
2023-05-19T05:52:52.653Z,10.96
2023-05-19T05:55:21.619Z,11.03
2023-05-19T05:57:50.664Z,11.16
2023-05-19T06:00:22.374Z,11.13
2023-05-19T06:02:54.201Z,11.04
2023-05-19T06:05:22.672Z,11.10
2023-05-19T06:07:52.921Z,11.12
2023-05-19T06:10:24.744Z,11.01
2023-05-19T06:12:53.093Z,11.23
2023-05-19T06:15:22.742Z,11.29
2023-05-19T06:18:03.756Z,11.26
2023-05-19T06:20:32.423Z,11.18
2023-05-19T06:23:02.730Z,11.22
2023-05-19T06:25:31.375Z,11.21
2023-05-19T06:27:59.682Z,11.33
2023-05-19T06:30:29.308Z,11.40
2023-05-19T06:33:05.552Z,11.40
2023-05-19T06:35:34.209Z,11.47
2023-05-19T06:38:03.911Z,11.37
2023-05-19T06:40:32.447Z,11.43
2023-05-19T06:43:00.841Z,11.53
2023-05-19T06:45:49.344Z,11.66
2023-05-19T06:48:17.879Z,11.83
2023-05-19T06:50:46.286Z,11.83
2023-05-19T06:53:17.662Z,11.78
2023-05-19T06:55:58.036Z,11.79
2023-05-19T06:58:28.230Z,11.79
2023-05-19T07:00:57.467Z,11.87
2023-05-19T07:03:31.123Z,11.98
2023-05-19T07:06:00.530Z,11.95
2023-05-19T07:08:31.137Z,11.89
2023-05-19T07:11:02.363Z,11.95
2023-05-19T07:13:30.761Z,11.98
2023-05-19T07:15:59.046Z,11.89
2023-05-19T07:18:31.868Z,11.87
2023-05-19T07:21:00.190Z,11.85
2023-05-19T07:23:28.561Z,11.82
2023-05-19T07:25:58.630Z,11.90
2023-05-19T07:28:27.037Z,12.00
2023-05-19T07:30:55.212Z,12.04
2023-05-19T07:33:23.541Z,12.00
2023-05-19T07:35:51.900Z,12.05
2023-05-19T07:38:20.706Z,11.86
2023-05-19T07:40:48.919Z,11.98
2023-05-19T07:43:18.573Z,11.99
2023-05-19T07:45:46.843Z,11.99
2023-05-19T07:48:15.192Z,12.05
2023-05-19T07:50:43.476Z,12.09
2023-05-19T07:53:11.743Z,12.10
2023-05-19T07:55:39.960Z,12.15
2023-05-19T07:58:08.320Z,12.06
2023-05-19T08:00:38.028Z,12.10
2023-05-19T08:03:06.319Z,12.17
2023-05-19T08:05:35.628Z,12.27
2023-05-19T08:08:03.875Z,12.36
2023-05-19T08:10:32.349Z,12.49
2023-05-19T08:13:00.736Z,12.52
2023-05-19T08:15:29.065Z,12.61
2023-05-19T08:17:59.033Z,12.60
2023-05-19T08:20:27.263Z,12.64
2023-05-19T08:22:55.563Z,12.66
2023-05-19T08:25:23.895Z,12.71
2023-05-19T08:27:52.229Z,12.84
2023-05-19T08:30:20.561Z,12.79
2023-05-19T08:32:52.565Z,12.75
2023-05-19T08:35:22.455Z,12.71
2023-05-19T08:37:50.676Z,12.73
2023-05-19T08:40:19.396Z,12.86
2023-05-19T08:42:48.128Z,12.95
2023-05-19T08:45:16.944Z,12.89
2023-05-19T08:47:47.273Z,12.83
2023-05-19T08:50:18.828Z,12.94
2023-05-19T08:52:53.438Z,12.94
2023-05-19T08:55:31.311Z,12.88
2023-05-19T08:58:00.052Z,13.00
2023-05-19T09:00:29.639Z,13.07
2023-05-19T09:03:10.689Z,13.04
2023-05-19T09:05:47.005Z,12.94
2023-05-19T09:08:17.126Z,12.93
2023-05-19T09:10:45.740Z,12.76
2023-05-19T09:13:13.911Z,12.71
2023-05-19T09:15:43.547Z,12.75
2023-05-19T09:18:13.487Z,12.85
2023-05-19T09:20:43.331Z,12.87
2023-05-19T09:23:14.892Z,13.18
2023-05-19T09:25:54.737Z,13.27
2023-05-19T09:28:27.179Z,13.54
2023-05-19T09:31:03.690Z,13.32
2023-05-19T09:33:34.346Z,13.40
2023-05-19T09:36:03.315Z,13.63
2023-05-19T09:38:31.536Z,13.59
2023-05-19T09:41:01.687Z,13.61
2023-05-19T09:43:30.238Z,13.79
2023-05-19T09:46:01.143Z,13.82
2023-05-19T09:48:30.257Z,13.74
2023-05-19T09:50:59.135Z,13.71
2023-05-19T09:53:53.010Z,13.58
2023-05-19T09:56:23.868Z,13.53
2023-05-19T09:58:53.735Z,13.30
2023-05-19T10:01:23.127Z,13.44
2023-05-19T10:03:51.880Z,13.67
2023-05-19T10:06:20.404Z,13.69
2023-05-19T10:08:50.282Z,13.62
2023-05-19T10:11:18.549Z,13.70
2023-05-19T10:13:48.508Z,13.83
2023-05-19T10:16:17.483Z,13.94
2023-05-19T10:18:45.840Z,13.83
2023-05-19T10:21:15.137Z,14.03
2023-05-19T10:23:43.461Z,14.27
2023-05-19T10:26:12.129Z,14.21
2023-05-19T10:28:42.435Z,14.11
2023-05-19T10:31:14.685Z,14.21
2023-05-19T10:33:56.942Z,14.34
2023-05-19T10:36:40.053Z,14.28
2023-05-19T10:39:14.202Z,14.16
2023-05-19T10:41:48.496Z,14.13
2023-05-19T10:44:24.666Z,14.19
2023-05-19T10:46:56.771Z,14.15
2023-05-19T10:49:25.651Z,14.22
2023-05-19T10:51:56.784Z,14.16
2023-05-19T10:54:44.073Z,14.18
2023-05-19T10:57:16.321Z,14.26
2023-05-19T10:59:45.654Z,14.36
2023-05-19T11:02:41.045Z,14.40
2023-05-19T11:05:10.785Z,14.48
2023-05-19T11:07:42.637Z,14.56
2023-05-19T11:10:11.691Z,14.82
2023-05-19T11:12:44.481Z,15.05
2023-05-19T11:15:16.621Z,15.34
2023-05-19T11:17:49.926Z,15.28
2023-05-19T11:20:25.267Z,15.29
2023-05-19T11:23:06.676Z,15.36
2023-05-19T11:25:45.823Z,15.29
2023-05-19T11:28:15.064Z,15.22
2023-05-19T11:30:44.381Z,15.28
2023-05-19T11:33:14.283Z,15.40
2023-05-19T11:35:43.302Z,15.54
2023-05-19T11:38:12.241Z,15.54
2023-05-19T11:40:41.052Z,15.55
2023-05-19T11:43:09.248Z,15.53
2023-05-19T11:45:37.754Z,15.50
2023-05-19T11:48:07.112Z,15.34
2023-05-19T11:50:38.369Z,15.36
2023-05-19T11:53:06.646Z,15.51
2023-05-19T11:55:34.948Z,15.55
2023-05-19T11:58:05.774Z,15.79
2023-05-19T12:00:37.726Z,15.98
2023-05-19T12:03:06.600Z,16.09
2023-05-19T12:05:42.036Z,16.17
2023-05-19T12:08:11.903Z,16.18
2023-05-19T12:10:41.222Z,16.02
2023-05-19T12:13:10.450Z,16.16
2023-05-19T12:15:40.051Z,16.21
2023-05-19T12:18:08.596Z,16.34
2023-05-19T12:20:38.398Z,16.41
2023-05-19T12:23:06.862Z,16.52
2023-05-19T12:25:35.386Z,16.51
2023-05-19T12:28:04.542Z,16.61
2023-05-19T12:30:34.718Z,16.73
2023-05-19T12:33:03.990Z,16.84
2023-05-19T12:35:33.642Z,16.72
2023-05-19T12:38:05.817Z,16.82
2023-05-19T12:40:35.320Z,16.76
2023-05-19T12:43:04.463Z,16.78
2023-05-19T12:45:35.537Z,16.65
2023-05-19T12:48:05.384Z,16.68
2023-05-19T12:50:35.113Z,16.63
2023-05-19T12:53:05.098Z,16.82
2023-05-19T12:55:39.338Z,16.91
2023-05-19T12:58:08.843Z,16.75
2023-05-19T13:00:41.987Z,16.82
2023-05-19T13:03:16.539Z,16.85
2023-05-19T13:05:46.545Z,16.79
2023-05-19T13:08:18.240Z,16.92
2023-05-19T13:10:47.740Z,16.85
2023-05-19T13:13:34.851Z,16.95
2023-05-19T13:16:21.850Z,16.96
2023-05-19T13:19:21.367Z,16.79
2023-05-19T13:21:53.410Z,16.87
2023-05-19T13:24:23.018Z,16.80
2023-05-19T13:26:51.949Z,16.97
2023-05-19T13:29:21.548Z,17.13
2023-05-19T13:31:49.871Z,17.29
2023-05-19T13:34:19.762Z,17.34
2023-05-19T13:36:48.985Z,17.30
2023-05-19T13:39:17.277Z,17.16
2023-05-19T13:41:46.923Z,17.17
2023-05-19T13:44:15.183Z,17.02
2023-05-19T13:46:45.525Z,16.97
2023-05-19T13:49:14.730Z,17.06
2023-05-19T13:51:44.254Z,17.19
2023-05-19T13:54:12.471Z,17.26
2023-05-19T13:56:40.807Z,17.09
2023-05-19T13:59:10.554Z,17.34
2023-05-19T14:01:39.207Z,17.28
2023-05-19T14:04:07.744Z,17.10
2023-05-19T14:06:36.835Z,17.26
2023-05-19T14:09:06.347Z,17.48
2023-05-19T14:11:34.657Z,17.52
2023-05-19T14:14:03.452Z,17.54
2023-05-19T14:16:33.737Z,17.74
2023-05-19T14:19:02.559Z,17.89
2023-05-19T14:21:31.200Z,18.06
2023-05-19T14:23:59.519Z,18.14
2023-05-19T14:26:29.328Z,18.10
2023-05-19T14:28:58.093Z,18.13
2023-05-19T14:31:26.438Z,18.15
2023-05-19T14:33:56.349Z,18.50
2023-05-19T14:36:24.593Z,18.86
2023-05-19T14:38:52.872Z,19.14
2023-05-19T14:41:21.691Z,19.43
2023-05-19T14:43:49.973Z,19.08
2023-05-19T14:46:19.858Z,18.99
2023-05-19T14:48:48.112Z,19.04
2023-05-19T14:51:17.740Z,18.99
2023-05-19T14:53:46.094Z,19.17
2023-05-19T14:56:14.388Z,19.25
2023-05-19T14:58:42.724Z,19.38
2023-05-19T15:01:10.984Z,19.26
2023-05-19T15:03:39.314Z,19.10
2023-05-19T15:06:09.787Z,19.29
2023-05-19T15:08:40.789Z,19.52
2023-05-19T15:11:09.162Z,19.49
2023-05-19T15:13:37.433Z,19.40
2023-05-19T15:16:17.510Z,19.63
2023-05-19T15:18:46.670Z,19.86
2023-05-19T15:21:14.955Z,19.89
2023-05-19T15:23:44.796Z,19.78
2023-05-19T15:26:13.178Z,19.65
2023-05-19T15:28:41.487Z,19.71
2023-05-19T15:31:09.774Z,19.60
2023-05-19T15:33:38.138Z,19.70
2023-05-19T15:36:07.059Z,19.72
2023-05-19T15:38:36.721Z,19.95
2023-05-19T15:41:09.303Z,20.05
2023-05-19T15:43:37.621Z,20.24
2023-05-19T15:46:06.043Z,20.44
2023-05-19T15:48:34.541Z,20.41
2023-05-19T15:51:03.171Z,20.35
2023-05-19T15:53:31.467Z,20.18
2023-05-19T15:55:59.767Z,19.90
2023-05-19T15:58:29.430Z,19.82
2023-05-19T16:00:57.737Z,19.94
2023-05-19T16:03:26.149Z,19.94
2023-05-19T16:05:54.786Z,19.96
2023-05-19T16:08:23.196Z,19.75
2023-05-19T16:10:51.524Z,19.97
2023-05-19T16:13:19.844Z,20.06
2023-05-19T16:15:49.589Z,19.95
2023-05-19T16:18:17.914Z,19.68
2023-05-19T16:20:46.155Z,19.62
2023-05-19T16:23:14.513Z,19.41
2023-05-19T16:25:42.773Z,19.52
2023-05-19T16:28:11.077Z,19.35
2023-05-19T16:30:39.366Z,19.58
2023-05-19T16:33:09.031Z,19.39
2023-05-19T16:35:37.448Z,19.46
2023-05-19T16:38:05.774Z,19.34
2023-05-19T16:40:34.390Z,19.50
2023-05-19T16:43:02.734Z,19.44
2023-05-19T16:45:31.064Z,19.46
2023-05-19T16:47:59.496Z,19.43
2023-05-19T16:50:29.509Z,19.50
2023-05-19T16:52:57.748Z,19.47
2023-05-19T16:55:26.866Z,19.33
2023-05-19T16:57:55.288Z,19.37
2023-05-19T17:00:23.962Z,19.32
2023-05-19T17:02:52.270Z,19.22
2023-05-19T17:05:20.588Z,19.30
2023-05-19T17:07:50.193Z,19.37
2023-05-19T17:10:18.456Z,19.38
2023-05-19T17:12:46.688Z,19.44
2023-05-19T17:15:15.587Z,19.37
2023-05-19T17:17:43.830Z,19.37
2023-05-19T17:20:13.335Z,19.27
2023-05-19T17:22:41.771Z,19.26
2023-05-19T17:25:11.793Z,19.27
2023-05-19T17:27:40.217Z,19.20
2023-05-19T17:30:10.034Z,19.16
2023-05-19T17:32:39.626Z,19.11
2023-05-19T17:35:08.983Z,18.93
2023-05-19T17:37:37.286Z,18.97
2023-05-19T17:40:06.449Z,18.84
2023-05-19T17:42:36.061Z,18.82
2023-05-19T17:45:07.525Z,18.83
2023-05-19T17:47:35.902Z,18.74
2023-05-19T17:50:04.369Z,18.69
2023-05-19T17:52:34.210Z,18.69
2023-05-19T17:55:02.947Z,18.72
2023-05-19T17:57:32.971Z,18.77
2023-05-19T18:00:03.877Z,18.75
2023-05-19T18:02:33.641Z,18.55
2023-05-19T18:05:02.586Z,18.46
2023-05-19T18:07:32.482Z,18.43
2023-05-19T18:10:01.620Z,18.47
2023-05-19T18:12:29.946Z,18.30
2023-05-19T18:14:58.592Z,18.38
2023-05-19T18:17:28.376Z,18.37
2023-05-19T18:19:56.642Z,18.24
2023-05-19T18:22:24.897Z,18.11
2023-05-19T18:24:53.135Z,18.13
2023-05-19T18:27:21.434Z,18.12
2023-05-19T18:29:49.699Z,17.97
2023-05-19T18:32:17.996Z,17.91
2023-05-19T18:34:47.613Z,17.85
2023-05-19T18:37:15.904Z,17.73
2023-05-19T18:39:44.218Z,17.83
2023-05-19T18:42:12.458Z,17.90
2023-05-19T18:44:40.715Z,17.89
2023-05-19T18:47:09.061Z,17.86
2023-05-19T18:49:37.537Z,17.73
2023-05-19T18:52:07.474Z,17.81
2023-05-19T18:54:35.711Z,17.80
2023-05-19T18:57:04.047Z,17.76
2023-05-19T18:59:32.425Z,17.69
2023-05-19T19:02:00.693Z,17.62
2023-05-19T19:04:28.961Z,17.59
2023-05-19T19:06:57.196Z,17.52
2023-05-19T19:09:26.850Z,17.47
2023-05-19T19:11:55.092Z,17.41
2023-05-19T19:14:23.409Z,17.22
2023-05-19T19:16:51.659Z,17.20
2023-05-19T19:19:20.213Z,17.22
2023-05-19T19:21:48.529Z,17.18
2023-05-19T19:24:16.736Z,17.03
2023-05-19T19:26:46.384Z,17.06
2023-05-19T19:29:16.702Z,17.09
2023-05-19T19:31:45.147Z,17.03
2023-05-19T19:34:13.678Z,16.91
2023-05-19T19:36:42.015Z,16.91
2023-05-19T19:39:10.306Z,16.91
2023-05-19T19:41:38.556Z,16.91
2023-05-19T19:44:08.272Z,16.84
2023-05-19T19:46:36.763Z,16.72
2023-05-19T19:49:05.062Z,16.69
2023-05-19T19:51:33.412Z,16.72
2023-05-19T19:54:01.662Z,16.74
2023-05-19T19:56:29.884Z,16.68
2023-05-19T19:58:59.284Z,16.74
2023-05-19T20:01:29.028Z,16.65
2023-05-19T20:03:57.938Z,16.67
2023-05-19T20:06:26.242Z,16.75
2023-05-19T20:08:54.461Z,16.68
2023-05-19T20:11:24.532Z,16.61
2023-05-19T20:13:53.266Z,16.58
2023-05-19T20:16:21.579Z,16.43
2023-05-19T20:18:51.540Z,16.32
2023-05-19T20:21:19.883Z,16.29
2023-05-19T20:23:50.369Z,16.24
2023-05-19T20:26:18.649Z,16.07
2023-05-19T20:28:46.933Z,16.11
2023-05-19T20:31:15.242Z,15.99
2023-05-19T20:33:43.552Z,15.99
2023-05-19T20:36:13.141Z,16.00
2023-05-19T20:38:41.368Z,15.83
2023-05-19T20:41:09.591Z,15.80
2023-05-19T20:43:37.864Z,15.81
2023-05-19T20:46:06.117Z,15.65
2023-05-19T20:48:34.414Z,15.63
2023-05-19T20:51:02.662Z,15.69
2023-05-19T20:53:33.956Z,15.68
2023-05-19T20:56:02.206Z,15.61
2023-05-19T20:58:31.525Z,15.58
2023-05-19T21:00:59.746Z,15.61
2023-05-19T21:03:28.663Z,15.45
2023-05-19T21:05:57.427Z,15.41
2023-05-19T21:08:26.288Z,15.41
2023-05-19T21:10:55.860Z,15.37
2023-05-19T21:13:24.170Z,15.46
2023-05-19T21:15:52.526Z,15.29
2023-05-19T21:18:20.721Z,15.27
2023-05-19T21:20:48.923Z,15.34
2023-05-19T21:23:17.202Z,15.13
2023-05-19T21:25:45.557Z,15.05
2023-05-19T21:28:15.241Z,15.21
2023-05-19T21:30:44.385Z,15.24
2023-05-19T21:33:12.719Z,15.19
2023-05-19T21:35:41.666Z,15.17
2023-05-19T21:38:22.599Z,15.20
2023-05-19T21:40:52.066Z,15.02
2023-05-19T21:43:21.902Z,14.95
2023-05-19T21:45:50.156Z,14.94
2023-05-19T21:48:18.424Z,14.99
2023-05-19T21:50:46.799Z,14.81
2023-05-19T21:53:15.067Z,14.76
2023-05-19T21:55:43.283Z,14.76
2023-05-19T21:58:11.511Z,14.75
2023-05-19T22:00:41.463Z,14.63
2023-05-19T22:03:09.746Z,14.64
2023-05-19T22:05:38.317Z,14.62
2023-05-19T22:08:06.707Z,14.60
2023-05-19T22:10:37.013Z,14.49
2023-05-19T22:13:05.533Z,14.59
2023-05-19T22:15:33.793Z,14.59
2023-05-19T22:18:03.458Z,14.60
2023-05-19T22:20:31.979Z,14.55
2023-05-19T22:23:01.297Z,14.53
2023-05-19T22:25:29.570Z,14.43
2023-05-19T22:27:57.972Z,14.28
2023-05-19T22:30:26.155Z,14.22
2023-05-19T22:32:54.430Z,14.23
2023-05-19T22:35:24.333Z,14.20
2023-05-19T22:37:52.558Z,14.22
2023-05-19T22:40:20.918Z,14.09
2023-05-19T22:42:49.156Z,14.16
2023-05-19T22:45:17.406Z,14.14
2023-05-19T22:47:45.672Z,14.08
2023-05-19T22:50:14.752Z,14.12
2023-05-19T22:52:44.340Z,14.20
2023-05-19T22:55:12.573Z,14.25
2023-05-19T22:57:40.805Z,14.23
2023-05-19T23:00:10.158Z,14.17
2023-05-19T23:02:42.183Z,14.23
2023-05-19T23:05:10.774Z,14.16
2023-05-19T23:07:38.967Z,13.95
2023-05-19T23:10:09.276Z,14.00
2023-05-19T23:12:37.488Z,13.86
2023-05-19T23:15:06.907Z,13.90
2023-05-19T23:17:35.162Z,13.95
2023-05-19T23:20:03.723Z,14.01
2023-05-19T23:22:32.077Z,13.95
2023-05-19T23:25:01.923Z,13.96
2023-05-19T23:27:31.538Z,13.92
2023-05-19T23:29:59.809Z,13.93
2023-05-19T23:32:28.243Z,13.91
2023-05-19T23:34:56.632Z,13.90
2023-05-19T23:37:24.934Z,13.94
2023-05-19T23:39:53.333Z,13.89
2023-05-19T23:42:21.551Z,13.89
2023-05-19T23:44:51.163Z,13.79
2023-05-19T23:47:19.341Z,13.71
2023-05-19T23:49:47.532Z,13.68
2023-05-19T23:52:16.409Z,13.66
2023-05-19T23:54:44.619Z,13.57
2023-05-19T23:57:12.862Z,13.48
2023-05-19T23:59:41.018Z,13.57
